Terminal Aerodrome Forecast
Issued by NWS

Home | Current Version | Previous Version | Graphics & Text | Print | Product List | Glossary On
Versions: 1 2 3 4 5 6 7 8 9 10 11 12
000
FTUS45 KGGW 062320
TAFSDY
TAF
KSDY 062320Z 0700/0724 29030G43KT P6SM SCT060
     FM070500 30026G38KT P6SM BKN060
     FM071200 31027G38KT P6SM VCSH BKN025
     FM071700 32032G44KT P6SM SCT050
      AMD LTD TO CLD VIS AND WIND=

USA.gov is the U.S. government's official web portal to all federal, state and local government web resources and services.